Česky Dansk Deutsch English Español Suomi Français Magyar Italiano Nederlands norsk Polski Português svenska Türkçe

 

Het Weer

Umea Flygplats (Zweden)

15:50, 2 augustus 2016 (GMT)

NWNNE
WE
SWSSE
Home            
Umea Flygplats Ornskoldsvik Airport Skelleftea Airport Vaasa Lycksele Kruunupyy Kramfors Flygplats Kauhava Ilmajoki Seinajoki-Ilmajok Gunnarn Sundsvall-Harnosand Flygplats Lulea / Kallax Vidsel Ahtari Hailuoto Pori Oulu Viitasaari Ostersund / Froson Kemi Jyvaskyla Tampere / Pirkkala

Om een weerknop op uw website of weblog te plaatsen, copieer onderstaande code en plak die in uw pagina. In het eerste vakje staat HTML-code, in het tweede vakje UBB-code.


Add to Google

Details

Wind speed:1 bf, 2 kn, 1.0 m/s, 2.3 miles/h, 3.7 km/h
Wind direction:SSE, 160°
Celková viditenost:Větší než 10000 m, 10 km, 32800 ft, 6.2 miles
Clouds:Skorojasno at 1400 ft, 427 m
Oblačno at 6800 ft, 2073 m
Teplota:17°C, 63°F
Rosný bod:8°C, 46°F
Atmosférický tlak:1004 hPa, 753.1 mmHg, 29.65 inHg, 0.991 atm
Relativní vlhkost vzduchu:55.4 %
METAR:ESNU 021550Z 16002KT 9999 FEW014CB BKN068 17/08 Q1004

Snelkoppelingen

Actuele weersinformatie van de hele wereld. Voeg locaties toe met het plus (+) symbool. Deze snelkoppelingen kunnen worden toegevoegd aan Google.

Lid van de Technetium groep

website free tracking
StatCounter NetStat W3C Validator

25-11-2020 09:19:19
astro.technetium.be money.technetium.be phote.technetium.be tafeltennistafel.technetium.be www.ligfiets.net